sensor_id;sensor_type;location;lat;lon;timestamp;P1;durP1;ratioP1;P2;durP2;ratioP2
19653;SDS011;9975;48.046;7.804;2023-05-10T01:56:34;0.90;;;0.90;;
19653;SDS011;9975;48.046;7.804;2023-05-10T01:59:04;0.80;;;0.80;;
19653;SDS011;9975;48.046;7.804;2023-05-10T02:01:32;0.70;;;0.70;;
19653;SDS011;9975;48.046;7.804;2023-05-10T02:03:59;1.83;;;1.00;;
19653;SDS011;9975;48.046;7.804;2023-05-10T02:06:26;0.80;;;0.80;;
19653;SDS011;9975;48.046;7.804;2023-05-10T02:08:52;1.07;;;0.97;;
19653;SDS011;9975;48.046;7.804;2023-05-10T02:11:19;0.80;;;0.80;;
19653;SDS011;9975;48.046;7.804;2023-05-10T02:13:47;1.57;;;0.90;;
19653;SDS011;9975;48.046;7.804;2023-05-10T02:16:15;0.60;;;0.60;;
19653;SDS011;9975;48.046;7.804;2023-05-10T02:18:42;1.20;;;1.10;;
19653;SDS011;9975;48.046;7.804;2023-05-10T02:21:09;2.77;;;1.17;;
19653;SDS011;9975;48.046;7.804;2023-05-10T02:23:35;1.00;;;0.90;;
19653;SDS011;9975;48.046;7.804;2023-05-10T02:26:02;1.47;;;1.20;;
19653;SDS011;9975;48.046;7.804;2023-05-10T02:28:30;2.53;;;1.63;;
19653;SDS011;9975;48.046;7.804;2023-05-10T02:30:57;1.47;;;0.90;;
19653;SDS011;9975;48.046;7.804;2023-05-10T02:33:23;1.37;;;0.90;;
19653;SDS011;9975;48.046;7.804;2023-05-10T02:35:50;0.90;;;0.70;;
19653;SDS011;9975;48.046;7.804;2023-05-10T02:38:17;0.97;;;0.90;;
19653;SDS011;9975;48.046;7.804;2023-05-10T02:40:45;0.90;;;0.90;;
19653;SDS011;9975;48.046;7.804;2023-05-10T02:43:12;1.17;;;0.70;;
19653;SDS011;9975;48.046;7.804;2023-05-10T02:45:40;1.10;;;0.90;;
19653;SDS011;9975;48.046;7.804;2023-05-10T02:48:08;1.80;;;1.03;;
19653;SDS011;9975;48.046;7.804;2023-05-10T02:50:33;2.70;;;0.80;;
19653;SDS011;9975;48.046;7.804;2023-05-10T02:53:03;1.63;;;1.00;;
19653;SDS011;9975;48.046;7.804;2023-05-10T02:55:37;0.97;;;0.93;;
19653;SDS011;9975;48.046;7.804;2023-05-10T02:58:05;1.80;;;1.30;;
19653;SDS011;9975;48.046;7.804;2023-05-10T03:00:31;1.23;;;1.00;;
19653;SDS011;9975;48.046;7.804;2023-05-10T03:02:57;1.10;;;1.00;;
19653;SDS011;9975;48.046;7.804;2023-05-10T03:05:23;1.03;;;0.97;;
19653;SDS011;9975;48.046;7.804;2023-05-10T03:07:49;1.47;;;1.03;;
19653;SDS011;9975;48.046;7.804;2023-05-10T03:10:16;1.10;;;1.00;;
19653;SDS011;9975;48.046;7.804;2023-05-10T03:18:21;2.83;;;1.30;;
19653;SDS011;9975;48.046;7.804;2023-05-10T03:20:49;1.90;;;1.10;;
19653;SDS011;9975;48.046;7.804;2023-05-10T03:25:42;0.80;;;0.80;;
19653;SDS011;9975;48.046;7.804;2023-05-10T03:28:10;2.70;;;1.03;;
19653;SDS011;9975;48.046;7.804;2023-05-10T03:30:37;1.00;;;0.90;;
19653;SDS011;9975;48.046;7.804;2023-05-10T03:33:07;3.57;;;1.63;;
19653;SDS011;9975;48.046;7.804;2023-05-10T03:35:32;1.43;;;1.33;;
19653;SDS011;9975;48.046;7.804;2023-05-10T03:37:58;2.20;;;1.57;;
19653;SDS011;9975;48.046;7.804;2023-05-10T03:40:24;1.40;;;1.30;;
19653;SDS011;9975;48.046;7.804;2023-05-10T03:42:50;2.17;;;0.90;;
19653;SDS011;9975;48.046;7.804;2023-05-10T03:45:16;2.10;;;1.03;;
19653;SDS011;9975;48.046;7.804;2023-05-10T03:47:42;2.50;;;1.13;;
19653;SDS011;9975;48.046;7.804;2023-05-10T03:50:07;1.40;;;1.30;;
19653;SDS011;9975;48.046;7.804;2023-05-10T03:52:33;1.53;;;1.43;;
19653;SDS011;9975;48.046;7.804;2023-05-10T03:54:59;1.77;;;1.10;;
19653;SDS011;9975;48.046;7.804;2023-05-10T03:57:24;1.33;;;1.23;;
19653;SDS011;9975;48.046;7.804;2023-05-10T03:59:50;1.80;;;1.00;;
19653;SDS011;9975;48.046;7.804;2023-05-10T04:02:15;2.30;;;1.23;;
19653;SDS011;9975;48.046;7.804;2023-05-10T04:04:41;1.37;;;1.27;;
19653;SDS011;9975;48.046;7.804;2023-05-10T04:07:07;1.17;;;1.13;;
19653;SDS011;9975;48.046;7.804;2023-05-10T04:09:32;6.27;;;1.93;;
19653;SDS011;9975;48.046;7.804;2023-05-10T04:11:58;1.13;;;1.13;;
19653;SDS011;9975;48.046;7.804;2023-05-10T04:14:25;2.50;;;1.20;;
19653;SDS011;9975;48.046;7.804;2023-05-10T04:16:51;1.30;;;1.20;;
19653;SDS011;9975;48.046;7.804;2023-05-10T04:19:17;1.63;;;1.53;;
19653;SDS011;9975;48.046;7.804;2023-05-10T04:21:42;1.30;;;1.20;;
19653;SDS011;9975;48.046;7.804;2023-05-10T04:24:08;1.30;;;1.20;;
19653;SDS011;9975;48.046;7.804;2023-05-10T04:26:34;1.63;;;0.97;;
19653;SDS011;9975;48.046;7.804;2023-05-10T04:28:59;2.50;;;1.00;;
19653;SDS011;9975;48.046;7.804;2023-05-10T04:31:25;0.87;;;0.87;;
19653;SDS011;9975;48.046;7.804;2023-05-10T04:33:51;1.20;;;1.10;;
19653;SDS011;9975;48.046;7.804;2023-05-10T04:36:17;1.77;;;1.67;;
19653;SDS011;9975;48.046;7.804;2023-05-10T04:38:43;2.30;;;1.10;;
19653;SDS011;9975;48.046;7.804;2023-05-10T04:41:09;1.70;;;1.60;;
19653;SDS011;9975;48.046;7.804;2023-05-10T04:43:35;2.37;;;1.30;;
19653;SDS011;9975;48.046;7.804;2023-05-10T04:46:01;3.03;;;1.57;;
19653;SDS011;9975;48.046;7.804;2023-05-10T04:48:27;1.17;;;1.07;;
19653;SDS011;9975;48.046;7.804;2023-05-10T04:50:53;2.20;;;1.53;;
19653;SDS011;9975;48.046;7.804;2023-05-10T04:53:19;1.53;;;1.30;;
19653;SDS011;9975;48.046;7.804;2023-05-10T04:55:45;3.20;;;1.20;;
19653;SDS011;9975;48.046;7.804;2023-05-10T04:58:11;1.10;;;1.10;;
19653;SDS011;9975;48.046;7.804;2023-05-10T05:00:37;1.40;;;1.30;;
19653;SDS011;9975;48.046;7.804;2023-05-10T05:03:02;1.50;;;1.17;;
19653;SDS011;9975;48.046;7.804;2023-05-10T05:05:28;1.33;;;1.23;;
19653;SDS011;9975;48.046;7.804;2023-05-10T05:07:54;1.67;;;1.30;;
19653;SDS011;9975;48.046;7.804;2023-05-10T05:10:19;1.60;;;1.30;;
19653;SDS011;9975;48.046;7.804;2023-05-10T05:12:45;1.77;;;1.33;;
19653;SDS011;9975;48.046;7.804;2023-05-10T05:15:10;2.00;;;1.20;;
19653;SDS011;9975;48.046;7.804;2023-05-10T05:17:36;3.07;;;1.30;;
19653;SDS011;9975;48.046;7.804;2023-05-10T05:20:02;1.60;;;1.50;;
19653;SDS011;9975;48.046;7.804;2023-05-10T05:22:28;1.83;;;1.53;;
19653;SDS011;9975;48.046;7.804;2023-05-10T05:24:54;4.87;;;1.20;;
19653;SDS011;9975;48.046;7.804;2023-05-10T05:27:20;1.53;;;1.43;;
19653;SDS011;9975;48.046;7.804;2023-05-10T05:29:49;1.50;;;1.40;;
19653;SDS011;9975;48.046;7.804;2023-05-10T05:32:18;1.30;;;1.20;;
19653;SDS011;9975;48.046;7.804;2023-05-10T05:34:44;1.50;;;1.40;;
19653;SDS011;9975;48.046;7.804;2023-05-10T05:37:17;1.67;;;1.57;;
19653;SDS011;9975;48.046;7.804;2023-05-10T05:39:44;2.17;;;1.30;;
19653;SDS011;9975;48.046;7.804;2023-05-10T05:42:10;6.37;;;1.90;;
19653;SDS011;9975;48.046;7.804;2023-05-10T05:44:37;2.40;;;1.30;;
19653;SDS011;9975;48.046;7.804;2023-05-10T05:47:02;1.40;;;1.30;;
19653;SDS011;9975;48.046;7.804;2023-05-10T05:49:29;2.93;;;1.43;;
19653;SDS011;9975;48.046;7.804;2023-05-10T05:51:58;1.90;;;1.30;;
19653;SDS011;9975;48.046;7.804;2023-05-10T05:54:28;4.97;;;2.43;;
19653;SDS011;9975;48.046;7.804;2023-05-10T05:56:54;2.10;;;1.33;;
19653;SDS011;9975;48.046;7.804;2023-05-10T05:59:20;1.93;;;1.70;;
19653;SDS011;9975;48.046;7.804;2023-05-10T06:01:46;1.50;;;1.40;;
19653;SDS011;9975;48.046;7.804;2023-05-10T06:04:12;3.03;;;1.47;;
19653;SDS011;9975;48.046;7.804;2023-05-10T06:06:38;1.10;;;1.03;;
19653;SDS011;9975;48.046;7.804;2023-05-10T06:09:03;1.07;;;1.07;;
19653;SDS011;9975;48.046;7.804;2023-05-10T06:11:29;1.10;;;1.00;;
19653;SDS011;9975;48.046;7.804;2023-05-10T06:13:57;1.10;;;1.10;;
19653;SDS011;9975;48.046;7.804;2023-05-10T06:16:23;1.70;;;1.20;;
19653;SDS011;9975;48.046;7.804;2023-05-10T06:18:48;4.70;;;1.37;;
19653;SDS011;9975;48.046;7.804;2023-05-10T06:21:14;1.20;;;1.10;;
19653;SDS011;9975;48.046;7.804;2023-05-10T06:23:41;1.20;;;1.10;;
19653;SDS011;9975;48.046;7.804;2023-05-10T06:26:06;1.17;;;1.07;;
19653;SDS011;9975;48.046;7.804;2023-05-10T06:28:32;1.20;;;1.10;;
19653;SDS011;9975;48.046;7.804;2023-05-10T06:30:58;1.47;;;0.90;;
19653;SDS011;9975;48.046;7.804;2023-05-10T06:33:24;1.20;;;1.10;;
19653;SDS011;9975;48.046;7.804;2023-05-10T06:35:50;1.63;;;1.10;;
19653;SDS011;9975;48.046;7.804;2023-05-10T06:38:16;1.40;;;1.30;;
19653;SDS011;9975;48.046;7.804;2023-05-10T06:40:42;0.97;;;0.90;;
19653;SDS011;9975;48.046;7.804;2023-05-10T06:43:08;0.90;;;0.90;;
19653;SDS011;9975;48.046;7.804;2023-05-10T06:45:34;5.13;;;1.50;;
19653;SDS011;9975;48.046;7.804;2023-05-10T06:47:59;3.67;;;1.50;;
19653;SDS011;9975;48.046;7.804;2023-05-10T06:50:26;1.50;;;1.40;;
19653;SDS011;9975;48.046;7.804;2023-05-10T06:52:51;3.00;;;1.43;;
19653;SDS011;9975;48.046;7.804;2023-05-10T06:55:17;3.30;;;1.10;;
19653;SDS011;9975;48.046;7.804;2023-05-10T06:57:43;2.37;;;1.50;;
19653;SDS011;9975;48.046;7.804;2023-05-10T07:00:10;2.00;;;1.70;;
19653;SDS011;9975;48.046;7.804;2023-05-10T07:02:36;2.07;;;1.30;;
19653;SDS011;9975;48.046;7.804;2023-05-10T07:05:01;1.20;;;1.10;;
19653;SDS011;9975;48.046;7.804;2023-05-10T07:07:27;6.23;;;1.60;;
19653;SDS011;9975;48.046;7.804;2023-05-10T07:09:53;4.97;;;1.40;;
19653;SDS011;9975;48.046;7.804;2023-05-10T07:12:21;1.90;;;1.43;;
19653;SDS011;9975;48.046;7.804;2023-05-10T07:14:47;7.57;;;1.33;;
19653;SDS011;9975;48.046;7.804;2023-05-10T07:17:12;2.30;;;1.20;;
19653;SDS011;9975;48.046;7.804;2023-05-10T07:19:38;1.87;;;1.77;;
19653;SDS011;9975;48.046;7.804;2023-05-10T07:22:03;2.97;;;1.70;;
19653;SDS011;9975;48.046;7.804;2023-05-10T07:24:29;4.40;;;1.27;;
19653;SDS011;9975;48.046;7.804;2023-05-10T07:26:56;1.97;;;1.80;;
19653;SDS011;9975;48.046;7.804;2023-05-10T07:29:21;3.17;;;1.80;;
19653;SDS011;9975;48.046;7.804;2023-05-10T07:31:47;4.40;;;2.00;;
19653;SDS011;9975;48.046;7.804;2023-05-10T07:34:12;3.23;;;1.50;;
19653;SDS011;9975;48.046;7.804;2023-05-10T07:36:38;2.47;;;1.60;;
19653;SDS011;9975;48.046;7.804;2023-05-10T07:39:04;6.90;;;1.70;;
19653;SDS011;9975;48.046;7.804;2023-05-10T07:41:30;2.47;;;1.80;;
19653;SDS011;9975;48.046;7.804;2023-05-10T07:43:55;2.63;;;1.57;;
19653;SDS011;9975;48.046;7.804;2023-05-10T07:46:21;2.03;;;1.57;;
19653;SDS011;9975;48.046;7.804;2023-05-10T07:48:47;1.63;;;1.33;;
19653;SDS011;9975;48.046;7.804;2023-05-10T07:51:12;1.70;;;1.60;;
19653;SDS011;9975;48.046;7.804;2023-05-10T07:53:38;3.07;;;1.90;;
19653;SDS011;9975;48.046;7.804;2023-05-10T07:56:20;9.23;;;1.63;;
19653;SDS011;9975;48.046;7.804;2023-05-10T07:58:46;1.90;;;1.43;;
19653;SDS011;9975;48.046;7.804;2023-05-10T08:01:12;2.33;;;2.00;;
19653;SDS011;9975;48.046;7.804;2023-05-10T08:03:37;3.43;;;0.93;;
19653;SDS011;9975;48.046;7.804;2023-05-10T08:06:03;1.90;;;1.37;;
19653;SDS011;9975;48.046;7.804;2023-05-10T08:08:29;1.33;;;1.23;;
19653;SDS011;9975;48.046;7.804;2023-05-10T08:10:54;1.90;;;1.67;;
19653;SDS011;9975;48.046;7.804;2023-05-10T08:13:20;2.23;;;1.10;;
19653;SDS011;9975;48.046;7.804;2023-05-10T08:15:46;1.40;;;1.30;;
19653;SDS011;9975;48.046;7.804;2023-05-10T08:18:12;2.17;;;1.07;;
19653;SDS011;9975;48.046;7.804;2023-05-10T08:20:37;1.50;;;1.40;;
19653;SDS011;9975;48.046;7.804;2023-05-10T08:23:03;1.70;;;1.13;;
19653;SDS011;9975;48.046;7.804;2023-05-10T08:25:29;0.87;;;0.87;;
19653;SDS011;9975;48.046;7.804;2023-05-10T08:27:54;1.20;;;0.97;;
19653;SDS011;9975;48.046;7.804;2023-05-10T08:30:20;1.53;;;1.37;;
19653;SDS011;9975;48.046;7.804;2023-05-10T08:32:46;1.77;;;1.00;;
19653;SDS011;9975;48.046;7.804;2023-05-10T08:35:11;1.43;;;1.00;;
19653;SDS011;9975;48.046;7.804;2023-05-10T08:37:37;2.00;;;1.40;;
19653;SDS011;9975;48.046;7.804;2023-05-10T08:40:03;1.10;;;1.00;;
19653;SDS011;9975;48.046;7.804;2023-05-10T08:42:28;7.57;;;1.17;;
19653;SDS011;9975;48.046;7.804;2023-05-10T08:44:55;1.60;;;0.80;;
19653;SDS011;9975;48.046;7.804;2023-05-10T08:47:22;1.97;;;1.20;;
19653;SDS011;9975;48.046;7.804;2023-05-10T08:49:48;1.77;;;1.20;;
19653;SDS011;9975;48.046;7.804;2023-05-10T08:52:16;6.37;;;1.13;;
19653;SDS011;9975;48.046;7.804;2023-05-10T08:54:43;1.33;;;0.93;;
19653;SDS011;9975;48.046;7.804;2023-05-10T08:57:09;2.57;;;1.00;;
19653;SDS011;9975;48.046;7.804;2023-05-10T08:59:35;2.10;;;1.10;;
19653;SDS011;9975;48.046;7.804;2023-05-10T09:02:03;1.20;;;0.80;;
19653;SDS011;9975;48.046;7.804;2023-05-10T09:04:29;2.30;;;0.90;;
19653;SDS011;9975;48.046;7.804;2023-05-10T09:06:56;5.17;;;1.00;;
19653;SDS011;9975;48.046;7.804;2023-05-10T09:09:22;1.30;;;0.90;;
19653;SDS011;9975;48.046;7.804;2023-05-10T09:11:50;2.03;;;1.43;;
19653;SDS011;9975;48.046;7.804;2023-05-10T09:14:16;1.60;;;1.13;;
19653;SDS011;9975;48.046;7.804;2023-05-10T09:16:43;1.77;;;1.23;;
19653;SDS011;9975;48.046;7.804;2023-05-10T09:19:08;2.57;;;1.20;;
19653;SDS011;9975;48.046;7.804;2023-05-10T09:21:35;2.10;;;0.67;;
19653;SDS011;9975;48.046;7.804;2023-05-10T09:24:03;2.10;;;1.30;;
19653;SDS011;9975;48.046;7.804;2023-05-10T09:26:30;2.47;;;1.30;;
19653;SDS011;9975;48.046;7.804;2023-05-10T09:28:57;6.63;;;1.53;;
19653;SDS011;9975;48.046;7.804;2023-05-10T09:31:24;1.43;;;1.10;;
19653;SDS011;9975;48.046;7.804;2023-05-10T09:34:07;2.43;;;1.47;;
19653;SDS011;9975;48.046;7.804;2023-05-10T09:36:33;3.47;;;1.27;;
19653;SDS011;9975;48.046;7.804;2023-05-10T09:38:58;2.20;;;1.20;;
19653;SDS011;9975;48.046;7.804;2023-05-10T09:41:24;2.90;;;1.43;;
19653;SDS011;9975;48.046;7.804;2023-05-10T09:43:50;4.53;;;1.20;;
19653;SDS011;9975;48.046;7.804;2023-05-10T09:46:21;3.53;;;1.20;;
19653;SDS011;9975;48.046;7.804;2023-05-10T09:48:50;2.10;;;1.07;;
19653;SDS011;9975;48.046;7.804;2023-05-10T09:51:23;0.97;;;0.87;;
19653;SDS011;9975;48.046;7.804;2023-05-10T09:54:10;3.37;;;1.30;;
19653;SDS011;9975;48.046;7.804;2023-05-10T09:56:41;2.73;;;1.30;;
19653;SDS011;9975;48.046;7.804;2023-05-10T09:59:11;2.50;;;1.20;;
19653;SDS011;9975;48.046;7.804;2023-05-10T10:01:37;6.90;;;1.20;;
19653;SDS011;9975;48.046;7.804;2023-05-10T10:04:04;1.70;;;0.90;;
19653;SDS011;9975;48.046;7.804;2023-05-10T10:06:39;1.83;;;0.90;;
19653;SDS011;9975;48.046;7.804;2023-05-10T10:09:05;3.40;;;1.20;;
19653;SDS011;9975;48.046;7.804;2023-05-10T10:11:34;3.40;;;1.00;;
19653;SDS011;9975;48.046;7.804;2023-05-10T10:14:02;2.60;;;0.77;;
19653;SDS011;9975;48.046;7.804;2023-05-10T10:16:29;1.40;;;0.73;;
19653;SDS011;9975;48.046;7.804;2023-05-10T10:18:55;0.80;;;0.60;;
19653;SDS011;9975;48.046;7.804;2023-05-10T10:21:22;1.10;;;0.87;;
19653;SDS011;9975;48.046;7.804;2023-05-10T10:23:48;1.50;;;1.30;;
19653;SDS011;9975;48.046;7.804;2023-05-10T10:26:14;1.20;;;0.60;;
19653;SDS011;9975;48.046;7.804;2023-05-10T10:31:13;4.37;;;1.40;;
19653;SDS011;9975;48.046;7.804;2023-05-10T10:33:59;4.20;;;1.10;;
19653;SDS011;9975;48.046;7.804;2023-05-10T10:36:26;5.53;;;1.63;;
19653;SDS011;9975;48.046;7.804;2023-05-10T10:38:59;2.40;;;1.00;;
19653;SDS011;9975;48.046;7.804;2023-05-10T10:41:35;2.33;;;1.73;;
19653;SDS011;9975;48.046;7.804;2023-05-10T10:46:59;2.90;;;1.33;;
19653;SDS011;9975;48.046;7.804;2023-05-10T10:52:23;1.70;;;0.83;;
19653;SDS011;9975;48.046;7.804;2023-05-10T10:57:48;0.87;;;0.87;;
19653;SDS011;9975;48.046;7.804;2023-05-10T11:02:54;0.60;;;0.50;;
19653;SDS011;9975;48.046;7.804;2023-05-10T11:05:46;1.87;;;0.50;;
19653;SDS011;9975;48.046;7.804;2023-05-10T11:15:59;1.27;;;0.70;;
19653;SDS011;9975;48.046;7.804;2023-05-10T11:18:35;2.90;;;0.83;;
19653;SDS011;9975;48.046;7.804;2023-05-10T11:21:02;3.90;;;1.00;;
19653;SDS011;9975;48.046;7.804;2023-05-10T11:23:47;4.13;;;1.20;;
19653;SDS011;9975;48.046;7.804;2023-05-10T11:26:13;0.60;;;0.60;;
19653;SDS011;9975;48.046;7.804;2023-05-10T11:28:48;1.57;;;0.70;;
19653;SDS011;9975;48.046;7.804;2023-05-10T11:31:15;1.03;;;0.90;;
19653;SDS011;9975;48.046;7.804;2023-05-10T11:33:42;6.53;;;1.27;;
19653;SDS011;9975;48.046;7.804;2023-05-10T11:36:19;4.03;;;0.80;;
19653;SDS011;9975;48.046;7.804;2023-05-10T11:38:47;0.80;;;0.63;;
19653;SDS011;9975;48.046;7.804;2023-05-10T11:41:14;0.73;;;0.60;;
19653;SDS011;9975;48.046;7.804;2023-05-10T11:43:42;1.93;;;0.73;;
19653;SDS011;9975;48.046;7.804;2023-05-10T11:46:11;2.00;;;0.70;;
19653;SDS011;9975;48.046;7.804;2023-05-10T11:48:40;1.60;;;0.60;;
19653;SDS011;9975;48.046;7.804;2023-05-10T11:51:07;1.03;;;0.70;;
19653;SDS011;9975;48.046;7.804;2023-05-10T11:53:36;0.97;;;0.73;;
19653;SDS011;9975;48.046;7.804;2023-05-10T11:56:06;3.07;;;0.77;;
19653;SDS011;9975;48.046;7.804;2023-05-10T11:58:33;0.70;;;0.50;;
19653;SDS011;9975;48.046;7.804;2023-05-10T12:00:59;2.00;;;0.70;;
19653;SDS011;9975;48.046;7.804;2023-05-10T12:03:25;0.70;;;0.70;;
19653;SDS011;9975;48.046;7.804;2023-05-10T12:05:52;1.27;;;0.83;;
19653;SDS011;9975;48.046;7.804;2023-05-10T12:08:20;2.93;;;0.77;;
19653;SDS011;9975;48.046;7.804;2023-05-10T12:10:47;2.77;;;0.70;;
19653;SDS011;9975;48.046;7.804;2023-05-10T12:13:13;2.13;;;0.70;;
19653;SDS011;9975;48.046;7.804;2023-05-10T12:15:40;1.90;;;0.87;;
19653;SDS011;9975;48.046;7.804;2023-05-10T12:18:11;0.87;;;0.70;;
19653;SDS011;9975;48.046;7.804;2023-05-10T12:20:40;3.63;;;0.50;;
19653;SDS011;9975;48.046;7.804;2023-05-10T12:23:08;0.63;;;0.50;;
19653;SDS011;9975;48.046;7.804;2023-05-10T12:25:35;0.70;;;0.50;;
19653;SDS011;9975;48.046;7.804;2023-05-10T12:28:03;0.80;;;0.70;;
19653;SDS011;9975;48.046;7.804;2023-05-10T12:30:30;2.33;;;0.70;;
19653;SDS011;9975;48.046;7.804;2023-05-10T12:33:01;1.00;;;0.90;;
19653;SDS011;9975;48.046;7.804;2023-05-10T12:35:32;1.37;;;0.73;;
19653;SDS011;9975;48.046;7.804;2023-05-10T12:37:58;0.60;;;0.50;;
19653;SDS011;9975;48.046;7.804;2023-05-10T12:40:24;1.77;;;0.67;;
19653;SDS011;9975;48.046;7.804;2023-05-10T12:42:49;1.63;;;0.40;;
19653;SDS011;9975;48.046;7.804;2023-05-10T12:45:16;1.60;;;0.50;;
19653;SDS011;9975;48.046;7.804;2023-05-10T12:47:43;1.33;;;0.53;;
19653;SDS011;9975;48.046;7.804;2023-05-10T12:50:09;2.80;;;0.70;;
19653;SDS011;9975;48.046;7.804;2023-05-10T12:52:34;1.43;;;0.60;;
19653;SDS011;9975;48.046;7.804;2023-05-10T12:55:00;1.10;;;0.60;;
19653;SDS011;9975;48.046;7.804;2023-05-10T12:57:28;2.20;;;0.70;;
19653;SDS011;9975;48.046;7.804;2023-05-10T12:59:54;1.17;;;0.67;;
19653;SDS011;9975;48.046;7.804;2023-05-10T13:02:20;0.73;;;0.50;;
19653;SDS011;9975;48.046;7.804;2023-05-10T13:04:47;1.90;;;0.53;;
19653;SDS011;9975;48.046;7.804;2023-05-10T13:07:13;0.40;;;0.40;;
19653;SDS011;9975;48.046;7.804;2023-05-10T13:09:39;1.23;;;0.40;;
19653;SDS011;9975;48.046;7.804;2023-05-10T13:12:04;0.50;;;0.43;;
19653;SDS011;9975;48.046;7.804;2023-05-10T13:14:31;1.67;;;0.30;;
19653;SDS011;9975;48.046;7.804;2023-05-10T13:16:57;0.80;;;0.30;;
19653;SDS011;9975;48.046;7.804;2023-05-10T13:19:22;1.33;;;0.40;;
19653;SDS011;9975;48.046;7.804;2023-05-10T13:21:48;0.63;;;0.40;;
19653;SDS011;9975;48.046;7.804;2023-05-10T13:24:14;0.40;;;0.37;;
19653;SDS011;9975;48.046;7.804;2023-05-10T13:26:39;0.90;;;0.37;;
19653;SDS011;9975;48.046;7.804;2023-05-10T13:29:06;0.70;;;0.53;;
19653;SDS011;9975;48.046;7.804;2023-05-10T13:31:33;1.07;;;0.70;;
19653;SDS011;9975;48.046;7.804;2023-05-10T13:33:59;0.60;;;0.40;;
19653;SDS011;9975;48.046;7.804;2023-05-10T13:36:25;1.80;;;0.50;;
19653;SDS011;9975;48.046;7.804;2023-05-10T13:38:51;1.03;;;0.37;;
19653;SDS011;9975;48.046;7.804;2023-05-10T13:41:16;1.03;;;0.30;;
19653;SDS011;9975;48.046;7.804;2023-05-10T13:43:42;1.00;;;0.37;;
19653;SDS011;9975;48.046;7.804;2023-05-10T13:46:08;0.60;;;0.40;;
19653;SDS011;9975;48.046;7.804;2023-05-10T13:48:33;0.60;;;0.40;;
19653;SDS011;9975;48.046;7.804;2023-05-10T13:50:59;2.50;;;0.50;;
19653;SDS011;9975;48.046;7.804;2023-05-10T13:53:24;0.40;;;0.30;;
19653;SDS011;9975;48.046;7.804;2023-05-10T13:55:50;1.50;;;0.30;;
19653;SDS011;9975;48.046;7.804;2023-05-10T13:58:16;0.93;;;0.50;;
19653;SDS011;9975;48.046;7.804;2023-05-10T14:00:42;0.50;;;0.50;;
19653;SDS011;9975;48.046;7.804;2023-05-10T14:03:07;0.40;;;0.30;;
19653;SDS011;9975;48.046;7.804;2023-05-10T14:05:35;0.40;;;0.30;;
19653;SDS011;9975;48.046;7.804;2023-05-10T14:08:01;1.70;;;0.60;;
19653;SDS011;9975;48.046;7.804;2023-05-10T14:10:28;0.50;;;0.30;;
19653;SDS011;9975;48.046;7.804;2023-05-10T14:12:56;2.20;;;0.40;;
19653;SDS011;9975;48.046;7.804;2023-05-10T14:15:22;0.40;;;0.30;;
19653;SDS011;9975;48.046;7.804;2023-05-10T14:17:48;2.63;;;0.40;;
19653;SDS011;9975;48.046;7.804;2023-05-10T14:20:14;0.57;;;0.40;;
19653;SDS011;9975;48.046;7.804;2023-05-10T14:22:40;0.40;;;0.30;;
19653;SDS011;9975;48.046;7.804;2023-05-10T14:25:05;0.40;;;0.30;;
19653;SDS011;9975;48.046;7.804;2023-05-10T14:27:31;0.50;;;0.40;;
19653;SDS011;9975;48.046;7.804;2023-05-10T14:29:57;1.43;;;1.33;;
19653;SDS011;9975;48.046;7.804;2023-05-10T14:32:23;0.47;;;0.47;;
19653;SDS011;9975;48.046;7.804;2023-05-10T14:34:51;0.53;;;0.30;;
19653;SDS011;9975;48.046;7.804;2023-05-10T14:37:17;0.50;;;0.30;;
19653;SDS011;9975;48.046;7.804;2023-05-10T14:39:43;1.53;;;0.40;;
19653;SDS011;9975;48.046;7.804;2023-05-10T14:42:09;0.60;;;0.47;;
19653;SDS011;9975;48.046;7.804;2023-05-10T14:44:34;1.13;;;0.40;;
19653;SDS011;9975;48.046;7.804;2023-05-10T14:47:00;0.40;;;0.30;;
19653;SDS011;9975;48.046;7.804;2023-05-10T14:49:25;1.13;;;0.50;;
19653;SDS011;9975;48.046;7.804;2023-05-10T14:51:51;1.70;;;0.70;;
19653;SDS011;9975;48.046;7.804;2023-05-10T14:54:17;2.40;;;0.60;;
19653;SDS011;9975;48.046;7.804;2023-05-10T14:56:42;1.57;;;0.70;;
19653;SDS011;9975;48.046;7.804;2023-05-10T14:59:08;0.50;;;0.37;;
19653;SDS011;9975;48.046;7.804;2023-05-10T15:01:34;0.40;;;0.30;;
19653;SDS011;9975;48.046;7.804;2023-05-10T15:04:02;1.37;;;0.30;;
19653;SDS011;9975;48.046;7.804;2023-05-10T15:06:31;0.40;;;0.30;;
19653;SDS011;9975;48.046;7.804;2023-05-10T15:08:58;1.43;;;0.40;;
19653;SDS011;9975;48.046;7.804;2023-05-10T15:11:24;0.60;;;0.40;;
19653;SDS011;9975;48.046;7.804;2023-05-10T15:13:50;0.40;;;0.40;;
19653;SDS011;9975;48.046;7.804;2023-05-10T15:16:16;0.50;;;0.50;;
19653;SDS011;9975;48.046;7.804;2023-05-10T15:18:42;0.60;;;0.50;;
19653;SDS011;9975;48.046;7.804;2023-05-10T15:21:07;0.40;;;0.40;;
19653;SDS011;9975;48.046;7.804;2023-05-10T15:23:33;0.40;;;0.40;;
19653;SDS011;9975;48.046;7.804;2023-05-10T15:25:59;0.40;;;0.40;;
19653;SDS011;9975;48.046;7.804;2023-05-10T15:28:25;1.77;;;0.50;;
19653;SDS011;9975;48.046;7.804;2023-05-10T15:30:51;1.77;;;0.50;;
19653;SDS011;9975;48.046;7.804;2023-05-10T15:33:16;0.50;;;0.40;;
19653;SDS011;9975;48.046;7.804;2023-05-10T15:35:42;2.97;;;0.77;;
19653;SDS011;9975;48.046;7.804;2023-05-10T15:38:09;0.90;;;0.50;;
19653;SDS011;9975;48.046;7.804;2023-05-10T15:40:34;1.60;;;0.40;;
19653;SDS011;9975;48.046;7.804;2023-05-10T15:43:00;0.70;;;0.50;;
19653;SDS011;9975;48.046;7.804;2023-05-10T15:45:26;0.67;;;0.40;;
19653;SDS011;9975;48.046;7.804;2023-05-10T15:47:51;1.47;;;0.60;;
19653;SDS011;9975;48.046;7.804;2023-05-10T15:50:17;0.40;;;0.40;;
19653;SDS011;9975;48.046;7.804;2023-05-10T15:52:43;1.27;;;0.40;;
19653;SDS011;9975;48.046;7.804;2023-05-10T15:55:08;0.90;;;0.40;;
19653;SDS011;9975;48.046;7.804;2023-05-10T15:57:37;0.60;;;0.40;;
19653;SDS011;9975;48.046;7.804;2023-05-10T16:00:04;0.40;;;0.30;;
19653;SDS011;9975;48.046;7.804;2023-05-10T16:02:31;1.83;;;0.60;;
19653;SDS011;9975;48.046;7.804;2023-05-10T16:04:56;0.73;;;0.50;;
19653;SDS011;9975;48.046;7.804;2023-05-10T16:07:22;0.93;;;0.50;;
19653;SDS011;9975;48.046;7.804;2023-05-10T16:09:48;1.47;;;0.50;;
19653;SDS011;9975;48.046;7.804;2023-05-10T16:12:13;1.57;;;0.43;;
19653;SDS011;9975;48.046;7.804;2023-05-10T16:14:39;0.50;;;0.40;;
19653;SDS011;9975;48.046;7.804;2023-05-10T16:17:05;0.90;;;0.60;;
19653;SDS011;9975;48.046;7.804;2023-05-10T16:19:31;1.30;;;0.40;;
19653;SDS011;9975;48.046;7.804;2023-05-10T16:21:57;2.77;;;0.60;;
19653;SDS011;9975;48.046;7.804;2023-05-10T16:24:23;1.13;;;0.40;;
19653;SDS011;9975;48.046;7.804;2023-05-10T16:26:50;1.83;;;0.73;;
19653;SDS011;9975;48.046;7.804;2023-05-10T16:29:15;0.80;;;0.60;;
19653;SDS011;9975;48.046;7.804;2023-05-10T16:31:41;0.83;;;0.57;;
19653;SDS011;9975;48.046;7.804;2023-05-10T16:34:07;2.10;;;0.73;;
19653;SDS011;9975;48.046;7.804;2023-05-10T16:36:32;1.10;;;1.00;;
19653;SDS011;9975;48.046;7.804;2023-05-10T16:38:58;2.27;;;1.10;;
19653;SDS011;9975;48.046;7.804;2023-05-10T16:41:24;1.30;;;0.83;;
19653;SDS011;9975;48.046;7.804;2023-05-10T16:43:50;1.57;;;1.07;;
19653;SDS011;9975;48.046;7.804;2023-05-10T16:46:17;2.10;;;0.90;;
19653;SDS011;9975;48.046;7.804;2023-05-10T16:48:42;1.90;;;0.97;;
19653;SDS011;9975;48.046;7.804;2023-05-10T16:51:08;1.50;;;0.70;;
19653;SDS011;9975;48.046;7.804;2023-05-10T16:53:34;1.43;;;0.43;;
19653;SDS011;9975;48.046;7.804;2023-05-10T16:56:00;1.37;;;0.60;;
19653;SDS011;9975;48.046;7.804;2023-05-10T16:58:26;1.20;;;0.67;;
19653;SDS011;9975;48.046;7.804;2023-05-10T17:00:51;1.20;;;0.60;;
19653;SDS011;9975;48.046;7.804;2023-05-10T17:03:17;0.70;;;0.53;;
19653;SDS011;9975;48.046;7.804;2023-05-10T17:05:43;3.13;;;0.50;;
19653;SDS011;9975;48.046;7.804;2023-05-10T17:08:08;0.63;;;0.47;;
19653;SDS011;9975;48.046;7.804;2023-05-10T17:10:35;2.17;;;0.60;;
19653;SDS011;9975;48.046;7.804;2023-05-10T17:13:03;0.93;;;0.43;;
19653;SDS011;9975;48.046;7.804;2023-05-10T17:15:28;1.13;;;0.60;;
19653;SDS011;9975;48.046;7.804;2023-05-10T17:17:54;2.50;;;0.50;;
19653;SDS011;9975;48.046;7.804;2023-05-10T17:20:20;0.90;;;0.70;;
19653;SDS011;9975;48.046;7.804;2023-05-10T17:22:46;2.00;;;0.50;;